Time;durP1;ratioP1;P1;durP2;ratioP2;P2;SDS_P1;SDS_P2;PMS_P1;PMS_P2;Temp;Humidity;BMP_temperature;BMP_pressure;BME280_temperature;BME280_humidity;BME280_pressure;Samples;Min_cycle;Max_cycle;Signal;HPM_P1;HPM_P2
2022/12/09 00:01:48;;;;;;;26.70;18.30;;;;;;;-0.11;86.43;99850.73;103283;1326;37844;-73
2022/12/09 00:04:22;;;;;;;29.40;18.80;;;;;;;-0.14;86.08;99850.05;103234;1314;37471;-72
2022/12/09 00:06:56;;;;;;;30.50;18.80;;;;;;;-0.14;86.51;99852.45;103254;1323;36650;-71
2022/12/09 00:09:30;;;;;;;30.30;18.30;;;;;;;-0.16;86.12;99854.52;103309;1323;37133;-72
2022/12/09 00:12:04;;;;;;;24.90;16.50;;;;;;;-0.20;86.32;99851.44;103314;1326;38657;-72
2022/12/09 00:14:38;;;;;;;28.70;18.10;;;;;;;-0.21;86.25;99850.08;103276;1326;37123;-72
2022/12/09 00:17:12;;;;;;;29.00;17.60;;;;;;;-0.19;86.67;99847.84;103192;1329;37223;-73
2022/12/09 00:19:47;;;;;;;29.30;18.40;;;;;;;-0.18;86.54;99850.40;103274;1324;37121;-71
2022/12/09 00:22:21;;;;;;;31.10;19.10;;;;;;;-0.17;86.51;99850.57;103146;1326;172921;-71
2022/12/09 00:24:55;;;;;;;30.20;20.30;;;;;;;-0.19;86.36;99848.86;103309;1312;36491;-71
2022/12/09 00:27:29;;;;;;;29.50;18.90;;;;;;;-0.23;86.53;99848.52;103236;1323;37384;-71
2022/12/09 00:30:03;;;;;;;30.50;18.30;;;;;;;-0.25;86.68;99847.00;103232;1322;173046;-72
2022/12/09 00:32:37;;;;;;;29.20;18.50;;;;;;;-0.28;86.60;99849.41;103240;1323;37391;-71
2022/12/09 00:35:11;;;;;;;25.70;17.30;;;;;;;-0.34;86.26;99851.48;103289;1326;36633;-72
2022/12/09 00:37:45;;;;;;;29.80;18.20;;;;;;;-0.35;86.91;99853.19;103238;1326;37260;-73
2022/12/09 00:40:19;;;;;;;29.40;18.50;;;;;;;-0.29;87.07;99849.40;103302;1323;37278;-71
2022/12/09 00:42:53;;;;;;;29.40;18.60;;;;;;;-0.26;86.98;99853.00;103258;1323;37264;-69
2022/12/09 00:45:27;;;;;;;32.60;19.90;;;;;;;-0.27;87.07;99856.42;103309;1326;37330;-72
2022/12/09 00:48:00;;;;;;;28.90;18.00;;;;;;;-0.28;87.02;99857.64;103293;1323;37139;-72
2022/12/09 00:50:34;;;;;;;28.30;18.50;;;;;;;-0.31;86.86;99854.89;103302;1322;36580;-72
2022/12/09 00:53:08;;;;;;;29.30;17.40;;;;;;;-0.36;86.85;99853.88;103286;1326;37212;-73
2022/12/09 00:55:42;;;;;;;29.70;19.20;;;;;;;-0.39;86.81;99853.02;103249;1323;37252;-73
2022/12/09 00:58:15;;;;;;;28.10;18.70;;;;;;;-0.40;86.86;99850.80;103232;1322;37222;-71
2022/12/09 01:00:49;;;;;;;25.60;17.30;;;;;;;-0.38;87.17;99849.77;103283;1326;37245;-73
2022/12/09 01:03:23;;;;;;;27.70;18.40;;;;;;;-0.37;86.92;99847.20;103260;1323;37225;-73
2022/12/09 01:05:57;;;;;;;28.50;18.00;;;;;;;-0.40;87.17;99849.60;103286;1323;36282;-72
2022/12/09 01:08:31;;;;;;;27.80;18.30;;;;;;;-0.42;86.98;99849.09;103272;1323;36479;-74
2022/12/09 01:11:12;;;;;;;29.20;17.70;;;;;;;-0.45;86.97;99848.92;103267;1325;36441;-73
2022/12/09 01:13:45;;;;;;;29.60;17.80;;;;;;;-0.48;86.87;99849.10;103275;1323;37314;-72
2022/12/09 01:16:21;;;;;;;26.90;18.40;;;;;;;-0.48;87.45;99848.07;103289;1323;37265;-71
2022/12/09 01:18:56;;;;;;;26.60;17.00;;;;;;;-0.42;87.46;99847.89;103156;1323;175108;-69
2022/12/09 01:21:30;;;;;;;28.00;17.90;;;;;;;-0.40;87.61;99848.23;103269;1324;37174;-72
2022/12/09 01:24:05;;;;;;;32.50;20.10;;;;;;;-0.37;87.57;99847.53;103254;1326;37190;-71
2022/12/09 01:26:40;;;;;;;28.00;17.90;;;;;;;-0.39;87.33;99843.42;103126;1328;175075;-73
2022/12/09 01:29:14;;;;;;;29.10;18.60;;;;;;;-0.41;87.66;99838.63;103272;1326;36132;-73
2022/12/09 01:31:48;;;;;;;28.90;18.00;;;;;;;-0.40;87.71;99838.81;103275;1326;37229;-71
2022/12/09 01:34:23;;;;;;;27.60;17.40;;;;;;;-0.42;87.43;99835.88;103264;1322;37735;-73
2022/12/09 01:36:57;;;;;;;28.40;17.90;;;;;;;-0.45;87.31;99835.73;103268;1322;38094;-72
2022/12/09 01:39:31;;;;;;;30.30;18.50;;;;;;;-0.43;87.61;99836.92;103169;1326;37159;-70
2022/12/09 01:42:06;;;;;;;27.20;17.30;;;;;;;-0.42;87.49;99834.36;103273;1326;37225;-72
2022/12/09 01:44:53;;;;;;;30.20;18.20;;;;;;;-0.41;87.80;99836.40;103222;1326;38442;-70
2022/12/09 01:47:27;;;;;;;29.20;18.50;;;;;;;-0.40;87.57;99834.01;103235;1326;37495;-72
2022/12/09 01:50:01;;;;;;;28.40;17.50;;;;;;;-0.42;87.63;99834.70;103294;1323;37772;-71
2022/12/09 01:52:35;;;;;;;27.70;17.50;;;;;;;-0.45;87.46;99837.95;103258;1322;37464;-72
2022/12/09 01:55:10;;;;;;;28.20;18.50;;;;;;;-0.47;87.56;99838.13;103256;1326;37228;-71
2022/12/09 01:57:44;;;;;;;26.60;17.70;;;;;;;-0.46;87.75;99839.32;103258;1323;37211;-69
2022/12/09 02:00:22;;;;;;;27.80;18.20;;;;;;;-0.44;87.45;99842.23;103281;1326;37213;-71
2022/12/09 02:02:56;;;;;;;30.30;19.10;;;;;;;-0.43;87.80;99837.96;103191;1325;37084;-71
2022/12/09 02:05:30;;;;;;;27.60;17.70;;;;;;;-0.45;87.40;99838.64;103267;1326;36320;-71
2022/12/09 02:08:06;;;;;;;30.90;18.10;;;;;;;-0.48;87.40;99835.55;103233;1323;37152;-71
2022/12/09 02:10:41;;;;;;;27.80;18.10;;;;;;;-0.48;87.37;99831.80;103314;1326;37445;-71
2022/12/09 02:13:22;;;;;;;27.70;18.00;;;;;;;-0.49;87.25;99827.52;103240;1322;37210;-71
2022/12/09 02:15:58;;;;;;;30.80;18.50;;;;;;;-0.55;87.08;99831.45;103273;1326;38873;-72
2022/12/09 02:18:35;;;;;;;30.00;19.00;;;;;;;-0.56;87.08;99824.96;103273;1322;37605;-72
2022/12/09 02:21:11;;;;;;;28.30;18.20;;;;;;;-0.57;87.20;99823.93;103260;1324;36716;-71
2022/12/09 02:23:48;;;;;;;30.90;18.50;;;;;;;-0.57;87.13;99824.79;103271;1323;36400;-72
2022/12/09 02:26:25;;;;;;;27.90;17.80;;;;;;;-0.56;87.36;99821.52;103219;1322;38109;-71
2022/12/09 02:29:09;;;;;;;26.80;18.10;;;;;;;-0.60;87.07;99819.31;103246;1326;37202;-71
2022/12/09 02:32:08;;;;;;;29.00;18.70;;;;;;;-0.61;86.83;99817.60;103308;1324;37122;-71
2022/12/09 02:34:44;;;;;;;29.80;19.10;;;;;;;-0.60;87.13;99821.88;103270;1323;37237;-71
2022/12/09 02:37:21;;;;;;;33.30;19.90;;;;;;;-0.61;87.07;99820.52;103258;1323;36642;-73
2022/12/09 02:39:56;;;;;;;30.80;18.70;;;;;;;-0.62;87.17;99822.57;103286;1323;37233;-70
2022/12/09 02:42:33;;;;;;;29.60;19.20;;;;;;;-0.67;86.94;99825.66;103224;1323;37117;-72
2022/12/09 02:45:09;;;;;;;30.40;19.10;;;;;;;-0.70;87.17;99826.17;103248;1323;37651;-73
2022/12/09 02:47:47;;;;;;;31.30;19.50;;;;;;;-0.69;87.23;99826.85;103279;1323;37251;-72
2022/12/09 02:50:24;;;;;;;33.30;19.50;;;;;;;-0.65;87.52;99825.98;103270;1323;38451;-69
2022/12/09 02:52:59;;;;;;;31.10;18.80;;;;;;;-0.61;87.58;99827.19;103292;1323;37221;-71
2022/12/09 02:55:33;;;;;;;28.50;18.20;;;;;;;-0.59;87.62;99825.14;103253;1323;37209;-71
2022/12/09 02:58:07;;;;;;;26.10;17.80;;;;;;;-0.57;87.54;99831.30;103247;1323;37217;-69
2022/12/09 03:00:44;;;;;;;26.00;17.60;;;;;;;-0.51;87.62;99832.48;103308;1326;38388;-70
2022/12/09 03:03:18;;;;;;;27.40;18.50;;;;;;;-0.45;87.71;99833.67;103281;1326;37957;-72
2022/12/09 03:05:56;;;;;;;31.10;19.30;;;;;;;-0.41;87.86;99832.30;103272;1323;37196;-71
2022/12/09 03:08:34;;;;;;;31.70;19.00;;;;;;;-0.37;87.86;99827.32;103281;1323;37217;-71
2022/12/09 03:11:09;;;;;;;28.00;18.40;;;;;;;-0.29;87.98;99826.10;103302;1326;37288;-72
2022/12/09 03:13:55;;;;;;;28.70;17.80;;;;;;;-0.23;88.04;99825.05;103269;1323;37247;-71
2022/12/09 03:16:35;;;;;;;31.10;18.10;;;;;;;-0.17;88.15;99820.92;103269;1322;37289;-71
2022/12/09 03:19:10;;;;;;;29.70;18.30;;;;;;;-0.11;87.81;99821.07;103256;1326;37197;-71
2022/12/09 03:21:45;;;;;;;30.30;18.90;;;;;;;-0.08;87.70;99819.52;103262;1324;37090;-73
2022/12/09 03:24:22;;;;;;;33.30;19.70;;;;;;;0.00;87.73;99819.31;103300;1326;37156;-73
2022/12/09 03:26:56;;;;;;;31.80;20.10;;;;;;;0.04;87.73;99817.91;103265;1323;36538;-71
2022/12/09 03:29:30;;;;;;;29.80;18.60;;;;;;;0.10;87.62;99814.47;103289;1322;36192;-71
2022/12/09 03:32:04;;;;;;;29.80;19.00;;;;;;;0.15;87.70;99811.19;103284;1322;37144;-73
2022/12/09 03:34:42;;;;;;;29.70;19.70;;;;;;;0.21;87.70;99813.58;103272;1326;38330;-73
2022/12/09 03:37:17;;;;;;;33.10;19.80;;;;;;;0.29;87.68;99810.77;103071;1329;37129;-69
2022/12/09 03:39:51;;;;;;;30.60;20.20;;;;;;;0.35;87.56;99807.32;103090;1329;37206;-70
2022/12/09 03:42:29;;;;;;;33.50;20.60;;;;;;;0.34;87.08;99805.60;103116;1329;37204;-71
2022/12/09 03:45:05;;;;;;;30.80;19.80;;;;;;;0.33;86.98;99810.06;103131;1328;37213;-70
2022/12/09 03:47:39;;;;;;;30.60;19.60;;;;;;;0.32;86.90;99804.75;103064;1330;36634;-71
2022/12/09 03:50:14;;;;;;;27.40;17.20;;;;;;;0.31;86.66;99807.50;103126;1326;36679;-70
2022/12/09 03:52:50;;;;;;;30.20;19.70;;;;;;;0.30;86.63;99808.71;103095;1326;37295;-70
2022/12/09 03:55:30;;;;;;;28.50;18.80;;;;;;;0.28;86.53;99810.77;103097;1329;37149;-72
2022/12/09 03:58:05;;;;;;;30.90;19.30;;;;;;;0.21;86.35;99810.29;103102;1325;38004;-72
2022/12/09 04:00:40;;;;;;;31.20;19.70;;;;;;;0.17;86.26;99808.60;103137;1326;37357;-70
2022/12/09 04:03:15;;;;;;;30.70;18.40;;;;;;;0.14;86.22;99809.46;103116;1326;37367;-72
2022/12/09 04:05:49;;;;;;;32.00;19.30;;;;;;;0.11;86.31;99811.55;103110;1329;37328;-72
2022/12/09 04:08:23;;;;;;;31.30;19.60;;;;;;;0.12;86.36;99812.91;103126;1326;37282;-69
2022/12/09 04:10:57;;;;;;;31.10;20.30;;;;;;;0.12;86.45;99817.55;103079;1329;37389;-72
2022/12/09 04:13:30;;;;;;;33.00;21.30;;;;;;;0.14;86.38;99812.38;103086;1326;37292;-74
2022/12/09 04:16:04;;;;;;;29.90;19.80;;;;;;;0.15;86.49;99807.25;103127;1329;37110;-72
2022/12/09 04:18:39;;;;;;;29.60;19.50;;;;;;;0.17;86.35;99808.94;103100;1329;36248;-69
2022/12/09 04:21:14;;;;;;;31.70;20.30;;;;;;;0.17;86.20;99807.41;103109;1329;37312;-72
2022/12/09 04:23:47;;;;;;;30.70;19.10;;;;;;;0.17;86.24;99809.12;103080;1329;37237;-72
2022/12/09 04:26:23;;;;;;;33.30;20.90;;;;;;;0.20;86.34;99810.14;103076;1329;37384;-70
2022/12/09 04:28:57;;;;;;;33.20;21.50;;;;;;;0.21;86.15;99810.30;103090;1329;38506;-71
2022/12/09 04:31:31;;;;;;;31.40;20.00;;;;;;;0.19;86.21;99808.59;103120;1326;37112;-71
2022/12/09 04:34:05;;;;;;;29.10;18.90;;;;;;;0.15;85.93;99810.50;103091;1329;37242;-72
2022/12/09 04:36:39;;;;;;;30.10;20.10;;;;;;;0.14;85.98;99811.18;103241;1323;37288;-70
2022/12/09 04:39:12;;;;;;;30.90;19.60;;;;;;;0.15;85.96;99808.10;103181;1326;175055;-73
2022/12/09 04:41:48;;;;;;;33.60;20.80;;;;;;;0.14;86.01;99810.33;103269;1326;37465;-72
2022/12/09 04:44:22;;;;;;;30.40;20.20;;;;;;;0.12;85.96;99808.27;103285;1322;36293;-72
2022/12/09 04:46:56;;;;;;;30.80;20.60;;;;;;;0.09;85.69;99808.98;103146;1323;176270;-73
2022/12/09 04:49:31;;;;;;;31.40;19.20;;;;;;;0.03;85.74;99811.92;103182;1323;175074;-72
2022/12/09 04:52:05;;;;;;;29.90;19.90;;;;;;;-0.02;85.69;99814.67;103314;1323;37801;-72
2022/12/09 04:54:40;;;;;;;30.20;19.30;;;;;;;-0.05;85.61;99811.09;103293;1323;37244;-72
2022/12/09 04:57:15;;;;;;;30.50;19.80;;;;;;;-0.05;85.87;99806.81;103245;1329;36937;-68
2022/12/09 04:59:49;;;;;;;30.30;19.60;;;;;;;-0.08;85.93;99805.96;103318;1326;36125;-72
2022/12/09 05:02:23;;;;;;;31.00;20.60;;;;;;;-0.11;85.91;99805.29;102958;1323;463029;-73
2022/12/09 05:04:56;;;;;;;33.00;20.70;;;;;;;-0.14;85.88;99810.10;103299;1323;36226;-70
2022/12/09 05:07:30;;;;;;;28.10;19.80;;;;;;;-0.16;85.97;99808.41;103278;1326;37188;-71
2022/12/09 05:10:05;;;;;;;32.20;19.50;;;;;;;-0.18;86.16;99810.12;103276;1312;37536;-71
2022/12/09 05:12:39;;;;;;;30.60;19.60;;;;;;;-0.16;86.40;99812.84;103218;1326;37222;-71
2022/12/09 05:15:15;;;;;;;32.00;20.30;;;;;;;-0.13;86.27;99810.29;103218;1325;37114;-69
2022/12/09 05:17:49;;;;;;;34.20;21.00;;;;;;;-0.15;86.30;99808.91;103232;1323;37281;-69
2022/12/09 05:20:27;;;;;;;32.30;21.00;;;;;;;-0.15;86.50;99812.17;103259;1322;37394;-70
2022/12/09 05:23:01;;;;;;;32.00;20.00;;;;;;;-0.16;86.28;99812.00;103271;1322;37197;-72
2022/12/09 05:25:35;;;;;;;32.30;19.30;;;;;;;-0.14;86.69;99813.02;103265;1323;38061;-72
2022/12/09 05:28:09;;;;;;;30.80;20.30;;;;;;;-0.09;86.75;99813.70;103267;1323;37237;-70
2022/12/09 05:30:43;;;;;;;30.00;20.40;;;;;;;-0.03;87.11;99815.03;103268;1326;37096;-72
2022/12/09 05:33:17;;;;;;;31.70;20.50;;;;;;;0.00;86.54;99814.86;103232;1326;37318;-69
2022/12/09 05:35:50;;;;;;;31.10;20.20;;;;;;;0.05;86.84;99813.45;103315;1322;37194;-72
2022/12/09 05:38:24;;;;;;;34.50;21.30;;;;;;;0.07;86.63;99810.54;103230;1326;37117;-71
2022/12/09 05:41:00;;;;;;;35.00;21.20;;;;;;;0.05;86.35;99812.43;103293;1324;37462;-72
2022/12/09 05:43:34;;;;;;;31.70;19.90;;;;;;;0.07;86.36;99820.66;103294;1326;37233;-70
2022/12/09 05:46:08;;;;;;;36.00;21.50;;;;;;;0.09;86.59;99818.58;103305;1322;37670;-71
2022/12/09 05:48:42;;;;;;;33.70;21.30;;;;;;;0.12;86.57;99820.98;103294;1324;37493;-71
2022/12/09 05:51:22;;;;;;;33.90;21.10;;;;;;;0.13;86.54;99819.26;103269;1324;36221;-73
2022/12/09 05:53:57;;;;;;;30.40;19.90;;;;;;;0.13;86.56;99822.00;103194;1328;36359;-69
2022/12/09 05:56:30;;;;;;;32.70;19.80;;;;;;;0.12;86.40;99816.86;103288;1323;37231;-70
2022/12/09 05:59:04;;;;;;;31.60;20.50;;;;;;;0.09;86.25;99823.22;103234;1326;37432;-72
2022/12/09 06:01:38;;;;;;;34.60;21.60;;;;;;;0.10;86.21;99822.20;103281;1326;36493;-70
2022/12/09 06:04:12;;;;;;;35.50;21.80;;;;;;;0.09;86.29;99825.95;103263;1323;37454;-71
2022/12/09 06:06:46;;;;;;;33.50;20.80;;;;;;;0.11;86.37;99826.64;103309;1322;37108;-72
2022/12/09 06:09:20;;;;;;;33.10;20.70;;;;;;;0.13;86.43;99827.65;103210;1327;37327;-73
2022/12/09 06:11:54;;;;;;;31.20;20.60;;;;;;;0.15;86.46;99831.59;103281;1326;37282;-71
2022/12/09 06:14:28;;;;;;;34.40;20.90;;;;;;;0.16;86.22;99832.11;103149;1326;175226;-71
2022/12/09 06:17:03;;;;;;;34.40;21.40;;;;;;;0.12;86.00;99830.91;103237;1329;37215;-73
2022/12/09 06:19:37;;;;;;;36.20;21.30;;;;;;;0.09;85.97;99830.59;103261;1324;37296;-72
2022/12/09 06:22:11;;;;;;;34.00;21.00;;;;;;;0.11;86.17;99830.77;103276;1323;37309;-71
2022/12/09 06:24:52;;;;;;;31.20;19.80;;;;;;;0.12;86.08;99828.36;103270;1326;37363;-73
2022/12/09 06:27:26;;;;;;;37.50;22.50;;;;;;;0.16;86.28;99829.38;103269;1324;36496;-72
2022/12/09 06:30:01;;;;;;;34.50;22.10;;;;;;;0.20;86.41;99828.66;103271;1324;36344;-73
2022/12/09 06:32:35;;;;;;;34.10;21.20;;;;;;;0.21;86.18;99834.65;103231;1322;37110;-72
2022/12/09 06:35:12;;;;;;;32.30;20.10;;;;;;;0.21;85.98;99832.95;103265;1326;37184;-70
2022/12/09 06:37:48;;;;;;;33.20;21.20;;;;;;;0.15;85.69;99833.66;103275;1323;36293;-72
2022/12/09 06:40:23;;;;;;;33.10;21.10;;;;;;;0.14;85.82;99835.20;103268;1323;37475;-73
2022/12/09 06:42:59;;;;;;;35.60;21.70;;;;;;;0.14;85.77;99839.48;103240;1323;37500;-72
2022/12/09 06:45:34;;;;;;;35.50;23.00;;;;;;;0.14;85.92;99835.54;103286;1322;37327;-73
2022/12/09 06:48:09;;;;;;;34.10;21.50;;;;;;;0.15;85.81;99837.77;103248;1322;36577;-71
2022/12/09 06:50:43;;;;;;;36.90;20.50;;;;;;;0.14;85.81;99840.17;103307;1322;37530;-72
2022/12/09 06:53:22;;;;;;;32.90;20.70;;;;;;;0.15;85.92;99836.06;103184;1324;173329;-72
2022/12/09 06:55:55;;;;;;;;;;;;;;;0.21;86.17;99835.87;103285;1326;37371;-73
2022/12/09 06:58:29;;;;;;;32.60;21.40;;;;;;;0.21;86.15;99831.58;103268;1326;37227;-73
2022/12/09 07:01:12;;;;;;;33.10;21.30;;;;;;;0.30;86.69;99829.13;103312;1323;37214;-73
2022/12/09 07:03:48;;;;;;;35.40;22.00;;;;;;;0.40;86.72;99827.35;103213;1326;37796;-73
2022/12/09 07:06:27;;;;;;;34.90;22.20;;;;;;;0.47;86.62;99827.48;103242;1326;37401;-73
2022/12/09 07:09:01;;;;;;;;;;;;;;;0.49;86.31;99828.16;103238;1329;36875;-73
2022/12/09 07:11:35;;;;;;;35.60;21.60;;;;;;;0.47;86.35;99829.71;103284;1326;37297;-71
2022/12/09 07:14:11;;;;;;;34.50;21.40;;;;;;;0.51;86.58;99827.29;103251;1322;37119;-73
2022/12/09 07:16:45;;;;;;;31.10;20.30;;;;;;;0.57;86.50;99825.88;103221;1326;40579;-73
2022/12/09 07:19:21;;;;;;;33.90;21.70;;;;;;;0.64;86.57;99824.46;103286;1322;37171;-74
2022/12/09 07:21:56;;;;;;;34.80;22.00;;;;;;;0.70;86.51;99822.37;103254;1326;37161;-73
2022/12/09 07:24:30;;;;;;;36.20;22.00;;;;;;;0.80;86.79;99818.69;103259;1322;37786;-73
2022/12/09 07:27:07;;;;;;;39.30;23.30;;;;;;;0.90;86.95;99815.70;103316;1323;36697;-74
2022/12/09 07:29:50;;;;;;;34.70;21.60;;;;;;;1.00;86.97;99810.12;103283;1326;37249;-74
2022/12/09 07:32:26;;;;;;;34.20;21.30;;;;;;;1.13;86.86;99811.39;103358;1326;37199;-74
2022/12/09 07:35:01;;;;;;;37.80;22.50;;;;;;;1.30;86.96;99807.79;103351;1326;37225;-75
2022/12/09 07:37:35;;;;;;;38.00;23.50;;;;;;;1.54;87.53;99808.08;103317;1326;36220;-76
2022/12/09 07:44:28;;;;;;;38.20;24.00;;;;;;;2.03;87.22;99809.23;102960;1329;37165;-74
2022/12/09 07:47:07;;;;;;;35.80;21.70;;;;;;;2.15;86.70;99811.84;102623;1334;36330;-72
2022/12/09 07:49:44;;;;;;;34.50;21.70;;;;;;;2.24;86.18;99813.63;102548;1336;38443;-70
2022/12/09 07:52:21;;;;;;;36.50;22.50;;;;;;;2.29;85.81;99820.08;102454;1337;37445;-72
2022/12/09 07:54:59;;;;;;;38.60;23.90;;;;;;;2.32;85.64;99817.65;102657;1331;36185;-72
2022/12/09 07:57:35;;;;;;;38.70;24.30;;;;;;;2.38;85.55;99819.81;102686;1334;38356;-72
2022/12/09 08:00:12;;;;;;;37.30;23.90;;;;;;;2.36;84.80;99820.01;102655;1334;37178;-72
2022/12/09 08:02:46;;;;;;;34.50;22.60;;;;;;;2.29;84.67;99820.79;102631;1334;36687;-74
2022/12/09 08:05:23;;;;;;;40.00;23.30;;;;;;;2.24;84.51;99825.33;102654;1332;37312;-74
2022/12/09 08:07:57;;;;;;;37.00;24.20;;;;;;;2.22;84.43;99824.32;102669;1331;37131;-73
2022/12/09 08:10:36;;;;;;;37.40;24.60;;;;;;;2.19;84.39;99825.73;102666;1332;37545;-73
2022/12/09 08:13:13;;;;;;;36.00;23.60;;;;;;;2.22;84.66;99825.36;102677;1330;37506;-72
2022/12/09 08:15:49;;;;;;;36.20;22.50;;;;;;;2.20;84.46;99823.66;102666;1330;38128;-73
2022/12/09 08:18:24;;;;;;;39.40;24.70;;;;;;;2.19;84.36;99824.52;102650;1336;37168;-73
2022/12/09 08:20:57;;;;;;;39.30;24.60;;;;;;;2.19;84.43;99825.56;102696;1334;37139;-72
2022/12/09 08:23:32;;;;;;;41.00;24.70;;;;;;;2.17;84.27;99830.74;102692;1321;37230;-71
2022/12/09 08:26:09;;;;;;;43.60;26.10;;;;;;;2.13;83.98;99832.00;102681;1334;36383;-72
2022/12/09 08:28:43;;;;;;;42.50;24.90;;;;;;;2.10;84.25;99833.59;102501;1334;37310;-72
2022/12/09 08:31:18;;;;;;;38.60;24.80;;;;;;;2.10;84.49;99837.19;102564;1332;37430;-73
2022/12/09 08:33:54;;;;;;;38.20;24.00;;;;;;;2.09;84.38;99836.86;102644;1334;37435;-74
2022/12/09 08:36:32;;;;;;;44.80;25.10;;;;;;;2.10;84.30;99832.38;102655;1334;37166;-70
2022/12/09 08:39:38;;;;;;;42.70;26.00;;;;;;;2.09;84.23;99834.45;102658;1331;36328;-72
2022/12/09 08:42:13;;;;;;;38.00;23.30;;;;;;;2.10;84.47;99834.10;102661;1332;37435;-72
2022/12/09 08:44:50;;;;;;;33.40;21.90;;;;;;;2.11;84.46;99835.98;102644;1332;36347;-73
2022/12/09 08:47:30;;;;;;;37.60;23.30;;;;;;;2.14;84.88;99836.30;102654;1334;37258;-72
2022/12/09 08:50:07;;;;;;;39.60;24.60;;;;;;;2.17;84.60;99840.55;102681;1333;37147;-71
2022/12/09 08:52:42;;;;;;;45.80;26.50;;;;;;;2.21;84.75;99844.27;102684;1334;37306;-72
2022/12/09 08:55:16;;;;;;;38.10;25.20;;;;;;;2.27;84.78;99845.26;102630;1334;37482;-72
2022/12/09 08:57:56;;;;;;;39.90;25.50;;;;;;;2.32;84.68;99844.50;102351;1337;172782;-74
2022/12/09 09:00:34;;;;;;;40.00;26.00;;;;;;;2.34;84.55;99839.30;102589;1332;37252;-74
2022/12/09 09:03:11;;;;;;;38.80;25.10;;;;;;;2.38;84.58;99835.80;102657;1331;37216;-74
2022/12/09 09:05:48;;;;;;;40.50;25.50;;;;;;;2.47;84.70;99836.04;102561;1331;175965;-73
2022/12/09 09:08:23;;;;;;;41.20;26.70;;;;;;;2.54;84.44;99834.55;102657;1334;37208;-73
2022/12/09 09:10:58;;;;;;;42.60;25.70;;;;;;;2.56;84.18;99835.20;102642;1334;37222;-72
2022/12/09 09:13:38;;;;;;;40.60;24.90;;;;;;;2.57;83.95;99832.44;102645;1334;37218;-73
2022/12/09 09:16:14;;;;;;;44.60;25.90;;;;;;;2.59;83.77;99832.07;102488;1336;37753;-72
2022/12/09 09:18:51;;;;;;;42.00;26.30;;;;;;;2.58;83.41;99831.73;102654;1331;37192;-74
2022/12/09 09:21:29;;;;;;;43.00;27.50;;;;;;;2.60;83.69;99829.13;102674;1334;37251;-72
2022/12/09 09:24:05;;;;;;;45.80;28.70;;;;;;;2.64;83.68;99830.79;102452;1337;36932;-72
2022/12/09 09:26:42;;;;;;;43.70;25.10;;;;;;;2.64;83.59;99830.97;102663;1334;37160;-72
2022/12/09 09:29:21;;;;;;;41.70;26.10;;;;;;;2.65;83.43;99831.13;102725;1331;37316;-73
2022/12/09 09:31:56;;;;;;;;;;;;;;;2.68;83.33;99828.85;102820;1334;37220;-74
2022/12/09 09:34:35;;;;;;;43.00;26.20;;;;;;;2.68;83.22;99829.38;102620;1330;37195;-72
2022/12/09 09:37:10;;;;;;;44.10;27.90;;;;;;;2.68;83.05;99831.61;102739;1332;37135;-73
2022/12/09 09:39:45;;;;;;;46.80;28.90;;;;;;;2.69;83.08;99829.35;102707;1333;37138;-73
2022/12/09 09:42:24;;;;;;;45.80;28.60;;;;;;;2.74;83.16;99829.61;102684;1333;37129;-73
2022/12/09 09:45:00;;;;;;;42.90;26.60;;;;;;;2.78;83.34;99831.45;102703;1334;37127;-72
2022/12/09 09:47:40;;;;;;;41.10;26.00;;;;;;;2.82;82.80;99829.67;102716;1334;37267;-73
2022/12/09 09:50:30;;;;;;;46.20;27.30;;;;;;;2.83;82.69;99832.24;102680;1334;37315;-73
2022/12/09 09:53:18;;;;;;;43.40;27.40;;;;;;;2.85;82.72;99832.02;102582;1336;37248;-74
2022/12/09 09:55:56;;;;;;;44.90;29.40;;;;;;;2.91;82.78;99829.04;102708;1334;36328;-74
2022/12/09 09:58:37;;;;;;;49.00;29.30;;;;;;;2.90;82.32;99829.20;102660;1334;38669;-74
2022/12/09 10:01:18;;;;;;;43.00;26.90;;;;;;;2.89;82.25;99827.16;102687;1334;38345;-73
2022/12/09 10:03:58;;;;;;;45.10;26.90;;;;;;;2.92;82.54;99828.14;102681;1333;37264;-73
2022/12/09 10:06:40;;;;;;;42.40;27.20;;;;;;;2.97;82.53;99822.73;102673;1332;37223;-74
2022/12/09 10:09:23;;;;;;;45.30;27.70;;;;;;;3.06;82.57;99821.54;102734;1334;37333;-74
2022/12/09 10:12:05;;;;;;;47.90;29.30;;;;;;;3.13;82.44;99821.94;102682;1333;37394;-76
2022/12/09 10:14:47;;;;;;;47.20;30.30;;;;;;;3.19;82.40;99819.25;102686;1331;36435;-75
2022/12/09 10:17:32;;;;;;;43.10;27.50;;;;;;;3.21;82.32;99818.72;101994;1336;906886;-73
2022/12/09 10:20:13;;;;;;;43.00;27.30;;;;;;;3.22;81.69;99823.16;102649;1334;37300;-73
2022/12/09 10:22:49;;;;;;;43.40;28.20;;;;;;;3.24;81.63;99827.45;102711;1332;37551;-72
2022/12/09 10:25:29;;;;;;;45.30;28.30;;;;;;;3.25;81.62;99830.20;102672;1333;36418;-73
2022/12/09 10:28:09;;;;;;;45.50;29.10;;;;;;;3.27;81.68;99830.67;102646;1331;37219;-73
2022/12/09 10:30:44;;;;;;;44.80;27.50;;;;;;;3.30;81.66;99832.70;102624;1331;174525;-72
2022/12/09 10:33:23;;;;;;;40.50;27.10;;;;;;;3.31;81.60;99831.13;102635;1334;36487;-71
2022/12/09 10:35:59;;;;;;;45.00;27.40;;;;;;;3.35;81.54;99831.07;102676;1330;37476;-73
2022/12/09 10:38:38;;;;;;;45.10;29.70;;;;;;;3.40;81.45;99831.48;102675;1336;37177;-73
2022/12/09 10:43:33;;;;;;;46.50;30.10;;;;;;;3.48;81.48;99831.36;102582;1332;36406;-72
2022/12/09 10:44:25;;;;;;;43.30;27.60;;;;;;;3.51;81.41;99830.79;102665;1331;37126;-74
2022/12/09 10:47:24;;;;;;;42.60;28.00;;;;;;;3.59;81.33;99828.38;102419;1337;37279;-72
2022/12/09 10:49:59;;;;;;;46.40;29.20;;;;;;;3.66;80.71;99826.55;101839;1337;909895;-74
2022/12/09 10:52:46;;;;;;;47.00;29.60;;;;;;;3.71;80.57;99829.89;102472;1337;36181;-74
2022/12/09 10:55:31;;;;;;;52.50;32.10;;;;;;;3.74;80.49;99828.45;102453;1337;36945;-73
2022/12/09 10:58:20;;;;;;;46.40;29.60;;;;;;;3.74;80.71;99825.34;102476;1337;40584;-71
2022/12/09 11:01:12;;;;;;;46.80;29.50;;;;;;;3.77;80.62;99820.80;102485;1337;37135;-73
2022/12/09 11:03:53;;;;;;;48.70;31.20;;;;;;;3.85;80.43;99823.59;102511;1337;37215;-73
2022/12/09 11:06:29;;;;;;;50.40;32.30;;;;;;;3.89;80.38;99823.67;102420;1336;38255;-71
2022/12/09 11:09:03;;;;;;;51.80;31.30;;;;;;;3.91;79.87;99822.96;102457;1336;37390;-72
2022/12/09 11:11:55;;;;;;;51.00;31.30;;;;;;;3.93;79.99;99819.63;102424;1339;37617;-73
2022/12/09 11:14:34;;;;;;;45.20;28.30;;;;;;;3.93;79.72;99821.01;102434;1337;37248;-74
2022/12/09 11:17:22;;;;;;;41.90;28.00;;;;;;;3.95;79.58;99816.66;102497;1337;37263;-74
2022/12/09 11:20:07;;;;;;;46.80;31.30;;;;;;;3.96;79.11;99816.48;102445;1337;37164;-74
2022/12/09 11:22:43;;;;;;;62.70;38.70;;;;;;;3.93;79.13;99815.66;102477;1336;38377;-74
2022/12/09 11:25:30;;;;;;;51.80;34.30;;;;;;;3.94;79.08;99814.95;102430;1334;37209;-73
2022/12/09 11:28:05;;;;;;;47.00;30.10;;;;;;;3.93;79.22;99812.39;102423;1334;37241;-73
2022/12/09 11:30:40;;;;;;;47.00;29.70;;;;;;;3.93;78.92;99815.84;102446;1337;37207;-73
2022/12/09 11:33:34;;;;;;;46.30;29.00;;;;;;;3.95;79.03;99814.10;102438;1338;36663;-74
2022/12/09 11:36:18;;;;;;;47.50;30.30;;;;;;;3.99;78.92;99812.78;102473;1337;37245;-74
2022/12/09 11:39:27;;;;;;;49.60;31.80;;;;;;;4.00;78.81;99811.89;102442;1338;38473;-74
2022/12/09 11:42:16;;;;;;;49.90;30.80;;;;;;;3.99;78.66;99807.95;102467;1327;37210;-73
2022/12/09 11:44:56;;;;;;;46.40;28.20;;;;;;;3.97;78.51;99811.44;103030;1307;37252;-73
2022/12/09 11:55:33;;;;;;;46.80;29.50;;;;;;;3.96;77.43;99807.15;102930;1284;37133;-71
2022/12/09 11:58:50;;;;;;;45.00;30.20;;;;;;;3.94;77.68;99803.39;103026;1315;37200;-73
2022/12/09 12:01:28;;;;;;;43.00;27.70;;;;;;;3.94;78.10;99794.43;104511;1332;37473;-73
2022/12/09 12:04:05;;;;;;;45.10;29.00;;;;;;;3.97;77.69;99792.79;104587;1332;36484;-73
2022/12/09 12:06:44;;;;;;;49.30;29.80;;;;;;;4.00;77.61;99792.40;104394;1332;187384;-73
2022/12/09 12:09:21;;;;;;;50.50;30.60;;;;;;;4.02;77.17;99790.11;104509;1332;37144;-73
2022/12/09 12:12:17;;;;;;;46.70;30.70;;;;;;;4.01;77.38;99791.69;104486;1329;39017;-73